Acme, Louisiana
Current Conditions -  °F | °C
As of 9:53 AM on Monday 24 Nov 2014 (Local Time) from KESF Reporting Station
Clear Clear  
Wind Chill: 58°   Ceiling: Unl
Heat Index: 58°   Visibility: 10mi
Dew Point: 42°   Wind: 9mph
Humidity: 56%   Direction: 310°NW
Pressure: 29.99"   Gusts: NA
Location:  31.29°N, 91.82°W
Report Text: KESF 241553Z AUTO 31008KT 280V340 10SM CLR 14/06 A2999 RMK AO2 SLP155 T01440056
Loading
Personal Weather Stations






























Interactive Weather Map New forecast layout! Learn more

10-Day Weather Forecast

Advertisements
Track Severe Weather on mobile